createdAt,value
2023-03-23T00:11:36.454Z,7.90
2023-03-23T00:23:34.181Z,7.60
2023-03-23T00:35:34.681Z,7.41
2023-03-23T00:47:37.801Z,7.10
2023-03-23T00:59:35.532Z,6.88
2023-03-23T01:11:35.973Z,6.82
2023-03-23T01:23:36.459Z,6.85
2023-03-23T01:35:39.325Z,6.96
2023-03-23T01:47:37.507Z,6.87
2023-03-23T01:59:38.013Z,6.62
2023-03-23T02:11:38.295Z,6.50
2023-03-23T02:23:38.716Z,6.51
2023-03-23T02:35:39.325Z,6.29
2023-03-23T02:47:39.696Z,5.32
2023-03-23T02:59:40.079Z,5.96
2023-03-23T03:11:40.533Z,5.67
2023-03-23T03:23:40.955Z,5.64
2023-03-23T03:35:41.568Z,5.21
2023-03-23T03:47:41.869Z,5.40
2023-03-23T03:59:42.328Z,4.77
2023-03-23T04:11:42.811Z,5.50
2023-03-23T04:23:43.221Z,5.00
2023-03-23T04:35:44.360Z,5.12
2023-03-23T04:47:46.443Z,5.14
2023-03-23T04:59:46.826Z,5.23
2023-03-23T05:11:45.036Z,5.07
2023-03-23T05:23:45.493Z,5.08
2023-03-23T05:35:46.372Z,5.30
2023-03-23T05:47:46.386Z,5.54
2023-03-23T05:59:46.882Z,5.84
2023-03-23T06:11:47.315Z,6.57
2023-03-23T06:23:47.750Z,7.05
2023-03-23T06:35:48.260Z,7.81
2023-03-23T06:47:48.695Z,8.53
2023-03-23T06:59:49.267Z,9.62
2023-03-23T07:11:49.569Z,10.26
2023-03-23T07:23:50.027Z,10.81
2023-03-23T07:35:50.485Z,11.11
2023-03-23T07:47:50.938Z,11.82
2023-03-23T07:59:51.373Z,12.90
2023-03-23T08:11:51.842Z,14.32
2023-03-23T08:23:52.301Z,15.82
2023-03-23T08:35:52.796Z,17.17
2023-03-23T08:47:53.189Z,16.88
2023-03-23T08:59:53.652Z,16.67
2023-03-23T09:11:54.074Z,18.14
2023-03-23T09:23:54.618Z,18.35
2023-03-23T09:35:55.056Z,18.84
2023-03-23T09:47:55.488Z,19.08
2023-03-23T09:59:58.242Z,20.01
2023-03-23T10:11:56.372Z,18.36
2023-03-23T10:23:56.845Z,19.23
2023-03-23T10:35:59.563Z,21.07
2023-03-23T10:47:59.980Z,21.49
2023-03-23T11:00:00.525Z,21.16
2023-03-23T11:12:02.137Z,20.41
2023-03-23T11:24:09.336Z,21.03
2023-03-23T11:35:59.616Z,21.09
2023-03-23T11:48:00.014Z,21.48
2023-03-23T12:00:00.506Z,21.78
2023-03-23T12:12:00.960Z,21.79
2023-03-23T12:24:03.177Z,21.62
2023-03-23T12:36:01.924Z,22.00
2023-03-23T12:48:02.318Z,21.45
2023-03-23T13:00:02.785Z,21.38
2023-03-23T13:12:03.229Z,21.46
2023-03-23T13:24:03.738Z,21.81
2023-03-23T13:36:06.073Z,22.43
2023-03-23T13:48:04.597Z,23.01
2023-03-23T14:00:05.036Z,20.81
2023-03-23T14:12:05.542Z,23.06
2023-03-23T14:24:05.924Z,23.26
2023-03-23T14:36:06.503Z,22.56
2023-03-23T14:48:06.846Z,23.30
2023-03-23T15:00:07.323Z,23.27
2023-03-23T15:12:07.801Z,22.73
2023-03-23T15:24:08.262Z,21.51
2023-03-23T15:36:08.720Z,20.43
2023-03-23T15:48:09.173Z,20.09
2023-03-23T16:00:09.621Z,19.52
2023-03-23T16:12:10.062Z,19.28
2023-03-23T16:24:10.506Z,18.98
2023-03-23T16:36:11.681Z,18.01
2023-03-23T16:48:11.461Z,17.24
2023-03-23T17:00:11.864Z,16.63
2023-03-23T17:12:12.336Z,15.59
2023-03-23T17:24:12.824Z,14.75
2023-03-23T17:36:13.361Z,14.27
2023-03-23T17:48:13.756Z,13.88
2023-03-23T18:00:16.484Z,13.76
2023-03-23T18:12:14.633Z,13.72
2023-03-23T18:24:15.060Z,13.07
2023-03-23T18:36:15.536Z,12.51
2023-03-23T18:48:15.971Z,12.59
2023-03-23T19:00:16.437Z,11.43
2023-03-23T19:12:16.871Z,11.43
2023-03-23T19:24:17.495Z,11.61
2023-03-23T19:36:18.446Z,11.23
2023-03-23T19:48:18.290Z,10.87
2023-03-23T20:00:18.677Z,10.33
2023-03-23T20:12:19.190Z,10.52
2023-03-23T20:24:19.607Z,10.52
2023-03-23T20:36:20.142Z,9.89
2023-03-23T20:48:23.331Z,10.04
2023-03-23T21:00:21.433Z,9.40
2023-03-23T21:12:23.748Z,9.21
2023-03-23T21:24:22.053Z,9.16
2023-03-23T21:36:24.649Z,8.92
2023-03-23T21:48:22.781Z,8.41
2023-03-23T22:00:23.221Z,8.73
2023-03-23T22:12:23.704Z,8.19
2023-03-23T22:24:24.119Z,7.45
2023-03-23T22:36:24.654Z,7.38
2023-03-23T22:48:25.025Z,8.07
2023-03-23T23:00:25.521Z,7.45
2023-03-23T23:12:25.939Z,6.84
2023-03-23T23:24:26.450Z,6.24
2023-03-23T23:36:26.867Z,6.68
2023-03-23T23:48:27.352Z,7.30
